createdAt,value
2023-02-27T00:01:22.411Z,1.60
2023-02-27T00:06:24.197Z,1.60
2023-02-27T00:11:26.755Z,1.50
2023-02-27T00:16:28.948Z,1.40
2023-02-27T00:21:31.776Z,1.50
2023-02-27T00:26:33.546Z,1.40
2023-02-27T00:31:35.346Z,1.00
2023-02-27T00:36:37.127Z,1.20
2023-02-27T00:41:40.346Z,1.40
2023-02-27T00:46:42.430Z,1.40
2023-02-27T00:51:44.254Z,1.20
2023-02-27T00:56:46.038Z,1.10
2023-02-27T01:01:47.810Z,1.20
2023-02-27T01:06:49.673Z,1.10
2023-02-27T01:11:52.212Z,1.10
2023-02-27T01:16:54.321Z,1.10
2023-02-27T01:21:56.079Z,1.10
2023-02-27T01:26:58.172Z,0.90
2023-02-27T01:32:00.282Z,0.80
2023-02-27T01:37:02.433Z,0.90
2023-02-27T01:42:04.522Z,0.90
2023-02-27T01:47:06.573Z,0.80
2023-02-27T01:52:11.915Z,0.90
2023-02-27T01:57:15.609Z,0.80
2023-02-27T02:02:23.482Z,0.80
2023-02-27T02:07:25.747Z,0.80
2023-02-27T02:12:30.348Z,0.80
2023-02-27T02:17:40.297Z,0.70
2023-02-27T02:23:20.777Z,0.70
2023-02-27T02:28:50.567Z,0.60
2023-02-27T02:34:23.263Z,0.60
2023-02-27T02:39:44.035Z,0.50
2023-02-27T02:44:58.064Z,0.50
2023-02-27T02:50:14.202Z,0.50
2023-02-27T02:55:34.803Z,0.50
2023-02-27T03:00:46.707Z,0.50
2023-02-27T03:05:54.835Z,0.50
2023-02-27T03:11:03.473Z,0.40
2023-02-27T03:16:15.415Z,0.30
2023-02-27T03:21:24.221Z,0.30
2023-02-27T03:26:40.049Z,0.30
2023-02-27T03:31:54.488Z,0.30
2023-02-27T03:37:14.823Z,0.30
2023-02-27T03:42:35.216Z,0.20
2023-02-27T03:47:36.998Z,0.20
2023-02-27T03:52:39.137Z,0.10
2023-02-27T03:57:41.794Z,0.20
2023-02-27T04:02:45.368Z,0.10
2023-02-27T04:08:08.056Z,0.10
2023-02-27T04:13:09.781Z,0.10
2023-02-27T04:18:32.467Z,0.00
2023-02-27T04:23:39.698Z,-0.20
2023-02-27T04:28:50.030Z,-0.20
2023-02-27T04:34:29.003Z,-0.10
2023-02-27T04:39:58.123Z,-0.20
2023-02-27T04:45:04.725Z,-0.30
2023-02-27T04:50:27.060Z,-0.40
2023-02-27T04:55:33.306Z,-0.30
2023-02-27T05:00:38.062Z,-0.40
2023-02-27T05:05:43.279Z,-0.40
2023-02-27T05:10:59.924Z,-0.50
2023-02-27T05:16:18.702Z,-0.50
2023-02-27T05:21:41.500Z,-0.50
2023-02-27T05:27:01.745Z,-0.50
2023-02-27T05:32:12.103Z,-0.50
2023-02-27T05:37:42.998Z,-0.60
2023-02-27T05:42:47.440Z,-0.70
2023-02-27T05:47:57.022Z,-0.70
2023-02-27T05:53:02.780Z,-0.60
2023-02-27T05:58:28.028Z,-0.50
2023-02-27T06:03:32.852Z,-0.60
2023-02-27T06:08:35.196Z,-0.70
2023-02-27T06:13:36.967Z,-0.70
2023-02-27T06:18:38.821Z,-0.80
2023-02-27T06:23:40.602Z,-0.70
2023-02-27T06:28:42.582Z,-0.90
2023-02-27T06:33:44.480Z,-0.80
2023-02-27T06:38:46.298Z,-0.80
2023-02-27T06:43:48.106Z,-0.80
2023-02-27T06:48:49.913Z,-0.80
2023-02-27T06:53:51.695Z,-0.80
2023-02-27T06:58:53.738Z,-0.80
2023-02-27T07:03:55.573Z,-0.70
2023-02-27T07:09:06.728Z,-0.50
2023-02-27T07:14:08.845Z,-0.40
2023-02-27T07:19:11.018Z,-0.40
2023-02-27T07:24:12.816Z,-0.40
2023-02-27T07:29:17.800Z,-0.30
2023-02-27T07:34:19.695Z,0.00
2023-02-27T07:39:21.478Z,0.00
2023-02-27T07:44:23.268Z,0.00
2023-02-27T07:49:25.416Z,0.10
2023-02-27T07:54:27.743Z,0.30
2023-02-27T07:59:29.576Z,0.40
2023-02-27T08:04:31.437Z,0.40
2023-02-27T08:09:33.320Z,0.50
2023-02-27T08:14:35.109Z,0.70
2023-02-27T08:19:36.926Z,0.60
2023-02-27T08:24:40.458Z,0.90
2023-02-27T08:29:43.389Z,1.00
2023-02-27T08:34:45.185Z,1.10
2023-02-27T08:39:47.046Z,1.50
2023-02-27T08:44:50.524Z,1.70
2023-02-27T08:49:52.391Z,1.80
2023-02-27T08:54:54.182Z,1.90
2023-02-27T08:59:55.987Z,2.00
2023-02-27T09:04:57.833Z,2.40
2023-02-27T09:09:59.608Z,2.40
2023-02-27T09:15:01.504Z,2.70
2023-02-27T09:20:05.046Z,2.90
2023-02-27T09:25:07.744Z,3.10
2023-02-27T09:30:10.222Z,3.20
2023-02-27T09:35:12.046Z,3.30
2023-02-27T09:40:39.260Z,3.30
2023-02-27T09:45:41.358Z,3.50
2023-02-27T09:50:45.153Z,3.60
2023-02-27T09:55:48.097Z,3.90
2023-02-27T10:00:57.468Z,3.90
2023-02-27T10:06:31.091Z,4.20
2023-02-27T10:11:52.993Z,4.30
2023-02-27T10:16:56.736Z,4.50
2023-02-27T10:22:00.411Z,4.40
2023-02-27T10:27:05.987Z,4.50
2023-02-27T10:32:18.517Z,4.70
2023-02-27T10:37:23.668Z,4.90
2023-02-27T10:42:30.246Z,4.80
2023-02-27T10:47:32.613Z,5.00
2023-02-27T10:52:47.822Z,5.40
2023-02-27T10:57:49.817Z,5.50
2023-02-27T11:02:52.473Z,5.30
2023-02-27T11:07:56.970Z,5.20
2023-02-27T11:13:04.313Z,5.30
2023-02-27T11:18:33.091Z,5.60
2023-02-27T11:23:35.808Z,5.90
2023-02-27T11:28:37.602Z,6.20
2023-02-27T11:33:48.525Z,6.30
2023-02-27T11:38:55.621Z,6.20
2023-02-27T11:43:59.441Z,6.40
2023-02-27T11:49:15.464Z,6.40
2023-02-27T11:55:02.320Z,6.50
2023-02-27T12:00:33.177Z,6.70
2023-02-27T12:05:40.256Z,6.30
2023-02-27T12:10:55.581Z,6.30
2023-02-27T12:16:18.089Z,6.40
2023-02-27T12:21:27.150Z,6.50
2023-02-27T12:26:37.291Z,6.60
2023-02-27T12:31:46.753Z,6.70
2023-02-27T12:36:48.813Z,6.80
2023-02-27T12:42:02.331Z,7.00
2023-02-27T12:47:16.018Z,7.30
2023-02-27T12:52:52.634Z,7.70
2023-02-27T12:58:06.325Z,7.50
2023-02-27T13:03:40.004Z,7.50
2023-02-27T13:08:53.947Z,7.90
2023-02-27T13:14:01.897Z,7.50
2023-02-27T13:19:15.956Z,6.90
2023-02-27T13:24:29.145Z,6.60
2023-02-27T13:29:40.753Z,7.10
2023-02-27T13:34:54.279Z,6.60
2023-02-27T13:39:56.406Z,7.50
2023-02-27T13:45:06.646Z,8.30
2023-02-27T13:50:17.516Z,8.70
2023-02-27T13:55:31.861Z,9.00
2023-02-27T14:00:37.821Z,9.90
2023-02-27T14:05:43.501Z,9.40
2023-02-27T14:11:08.426Z,9.10
2023-02-27T14:16:11.439Z,9.80
2023-02-27T14:21:13.561Z,9.20
2023-02-27T14:26:20.617Z,9.50
2023-02-27T14:31:35.423Z,10.00
2023-02-27T14:36:45.956Z,9.60
2023-02-27T14:42:29.054Z,9.40
2023-02-27T14:47:37.524Z,10.40
2023-02-27T14:52:43.475Z,11.00
2023-02-27T14:58:18.517Z,9.60
2023-02-27T15:03:21.869Z,9.50
2023-02-27T15:08:34.741Z,8.70
2023-02-27T15:13:39.113Z,7.40
2023-02-27T15:18:41.325Z,7.80
2023-02-27T15:23:43.499Z,9.70
2023-02-27T15:28:47.620Z,10.80
2023-02-27T15:33:50.582Z,9.40
2023-02-27T15:39:28.774Z,8.00
2023-02-27T15:44:43.114Z,8.10
2023-02-27T15:49:45.573Z,9.90
2023-02-27T15:55:05.794Z,10.10
2023-02-27T16:00:08.983Z,10.60
2023-02-27T16:05:26.814Z,9.90
2023-02-27T16:10:35.500Z,10.30
2023-02-27T16:15:38.913Z,9.30
2023-02-27T16:20:55.740Z,8.70
2023-02-27T16:26:24.963Z,7.80
2023-02-27T16:31:37.692Z,9.10
2023-02-27T16:36:41.665Z,9.30
2023-02-27T16:41:43.587Z,8.90
2023-02-27T16:46:45.405Z,9.10
2023-02-27T16:51:47.554Z,8.60
2023-02-27T16:56:50.740Z,7.50
2023-02-27T17:01:52.881Z,7.20
2023-02-27T17:06:56.946Z,7.00
2023-02-27T17:11:58.766Z,6.70
2023-02-27T17:17:00.585Z,6.40
2023-02-27T17:22:03.072Z,6.30
2023-02-27T17:27:05.209Z,6.00
2023-02-27T17:32:07.221Z,6.10
2023-02-27T17:37:09.034Z,6.00
2023-02-27T17:42:12.815Z,5.90
2023-02-27T17:47:15.426Z,5.90
2023-02-27T17:52:17.245Z,5.90
2023-02-27T17:57:19.155Z,5.90
2023-02-27T18:02:21.040Z,5.60
2023-02-27T18:07:22.844Z,5.80
2023-02-27T18:12:25.415Z,5.80
2023-02-27T18:17:27.555Z,5.70
2023-02-27T18:22:30.014Z,5.70
2023-02-27T18:27:31.881Z,5.60
2023-02-27T18:32:33.974Z,5.30
2023-02-27T18:37:35.950Z,5.40
2023-02-27T18:42:37.853Z,5.20
2023-02-27T18:47:39.925Z,5.20
2023-02-27T18:52:41.860Z,5.10
2023-02-27T18:57:45.048Z,4.80
2023-02-27T19:02:47.227Z,4.90
2023-02-27T19:07:49.253Z,4.70
2023-02-27T19:12:51.607Z,4.80
2023-02-27T19:17:55.117Z,4.50
2023-02-27T19:22:56.871Z,4.50
2023-02-27T19:27:58.949Z,4.40
2023-02-27T19:33:00.827Z,4.40
2023-02-27T19:38:02.855Z,4.30
2023-02-27T19:43:04.719Z,4.10
2023-02-27T19:48:07.157Z,4.10
2023-02-27T19:53:09.191Z,4.10
2023-02-27T19:58:10.967Z,3.90
2023-02-27T20:03:12.869Z,3.80
2023-02-27T20:08:14.769Z,3.70
2023-02-27T20:13:17.068Z,3.50
2023-02-27T20:18:18.923Z,3.40
2023-02-27T20:23:20.799Z,3.40
2023-02-27T20:28:22.784Z,3.40
2023-02-27T20:33:24.891Z,3.30
2023-02-27T20:38:27.277Z,3.30
2023-02-27T20:43:29.491Z,3.20
2023-02-27T20:48:31.987Z,3.10
2023-02-27T20:53:38.708Z,3.00
2023-02-27T20:58:40.889Z,2.90
2023-02-27T21:03:44.946Z,2.90
2023-02-27T21:08:49.286Z,2.80
2023-02-27T21:13:51.208Z,2.70
2023-02-27T21:18:56.451Z,2.70
2023-02-27T21:23:59.071Z,2.70
2023-02-27T21:29:05.159Z,2.70
2023-02-27T21:34:10.649Z,2.70
2023-02-27T21:39:15.488Z,2.40
2023-02-27T21:44:19.733Z,2.40
2023-02-27T21:49:24.348Z,2.40
2023-02-27T21:54:26.310Z,2.20
2023-02-27T21:59:28.823Z,2.10
2023-02-27T22:04:30.617Z,2.10
2023-02-27T22:09:32.415Z,1.90
2023-02-27T22:14:34.190Z,1.90
2023-02-27T22:19:36.494Z,2.00
2023-02-27T22:24:38.274Z,1.90
2023-02-27T22:29:42.198Z,1.80
2023-02-27T22:34:44.689Z,1.70
2023-02-27T22:39:46.506Z,1.80
2023-02-27T22:44:48.441Z,1.60
2023-02-27T22:49:53.084Z,1.60
2023-02-27T22:54:54.958Z,1.60
2023-02-27T22:59:56.720Z,1.60
2023-02-27T23:04:58.932Z,1.40
2023-02-27T23:10:00.758Z,1.40
2023-02-27T23:15:02.891Z,1.30
2023-02-27T23:20:05.290Z,1.30
2023-02-27T23:25:09.159Z,1.40
2023-02-27T23:30:12.523Z,1.30
2023-02-27T23:35:16.256Z,1.20
2023-02-27T23:40:22.790Z,1.20
2023-02-27T23:45:24.723Z,1.00
2023-02-27T23:50:32.732Z,1.00
2023-02-27T23:55:36.990Z,1.00
